Time;durP1;ratioP1;P1;durP2;ratioP2;P2;SDS_P1;SDS_P2;PMS_P1;PMS_P2;Temp;Humidity;BMP_temperature;BMP_pressure;BME280_temperature;BME280_humidity;BME280_pressure;Samples;Min_cycle;Max_cycle;Signal;HPM_P1;HPM_P2
2022/10/14 00:01:45;;;;;;;15.50;10.70;;;;;;;8.23;100.00;97854.70;108209;1267;69251;-74
2022/10/14 00:04:15;;;;;;;14.10;10.20;;;;;;;8.24;100.00;97852.70;108049;1267;69052;-75
2022/10/14 00:06:45;;;;;;;18.00;14.50;;;;;;;8.27;100.00;97854.80;108092;1266;59746;-74
2022/10/14 00:09:16;;;;;;;18.00;12.70;;;;;;;8.27;100.00;97847.83;108172;1265;59770;-74
2022/10/14 00:11:46;;;;;;;19.90;12.40;;;;;;;8.26;100.00;97845.64;107935;1264;71413;-74
2022/10/14 00:14:19;;;;;;;16.60;13.60;;;;;;;8.27;100.00;97844.21;107878;1267;69029;-74
2022/10/14 00:16:53;;;;;;;20.70;15.00;;;;;;;8.27;100.00;97840.73;108152;1267;69160;-74
2022/10/14 00:19:23;;;;;;;18.00;13.30;;;;;;;8.28;100.00;97839.12;107962;1264;59756;-75
2022/10/14 00:21:54;;;;;;;19.40;15.00;;;;;;;8.29;100.00;97838.20;107856;1267;59766;-75
2022/10/14 00:24:27;;;;;;;19.30;13.80;;;;;;;8.29;100.00;97835.89;108121;1266;71432;-75
2022/10/14 00:26:59;;;;;;;17.40;14.00;;;;;;;8.30;100.00;97836.06;108020;1266;69054;-75
2022/10/14 00:29:28;;;;;;;;;;;;;;;8.29;100.00;97834.35;108049;1266;68359;-75
2022/10/14 00:31:59;;;;;;;27.80;18.30;;;;;;;8.28;100.00;97834.77;107731;1261;59706;-75
2022/10/14 00:34:30;;;;;;;22.80;16.20;;;;;;;8.26;100.00;97828.42;108131;1267;59733;-74
2022/10/14 00:37:01;;;;;;;31.10;20.20;;;;;;;8.24;100.00;97828.20;108151;1266;71342;-74
2022/10/14 00:39:31;;;;;;;25.10;16.50;;;;;;;8.22;100.00;97822.09;108078;1266;68121;-75
2022/10/14 00:42:02;;;;;;;51.20;18.00;;;;;;;8.21;100.00;97824.73;107759;1267;69865;-75
2022/10/14 00:44:31;;;;;;;32.30;19.60;;;;;;;8.20;100.00;97823.61;107989;1265;59670;-75
2022/10/14 00:47:01;;;;;;;49.60;18.80;;;;;;;8.17;100.00;97821.29;108045;1264;59662;-75
2022/10/14 00:49:38;;;;;;;28.20;16.30;;;;;;;8.15;100.00;97817.46;108205;1261;71421;-74
2022/10/14 00:52:18;;;;;;;26.70;16.30;;;;;;;8.13;100.00;97814.27;108139;1267;69179;-74
2022/10/14 00:54:55;;;;;;;31.30;16.80;;;;;;;8.12;100.00;97811.37;108036;1266;68292;-74
2022/10/14 00:57:26;;;;;;;21.70;14.80;;;;;;;8.12;100.00;97812.41;107827;1266;59749;-73
2022/10/14 01:00:01;;;;;;;23.20;14.80;;;;;;;8.10;100.00;97807.80;108000;1265;59636;-75
2022/10/14 01:02:31;;;;;;;25.60;17.60;;;;;;;8.12;100.00;97812.41;108050;1263;71711;-75
2022/10/14 01:05:04;;;;;;;28.10;15.40;;;;;;;8.11;100.00;97815.27;107945;1267;69404;-76
2022/10/14 01:07:56;;;;;;;22.40;14.30;;;;;;;8.08;100.00;97813.66;108178;1259;69269;-76
2022/10/14 01:10:48;;;;;;;19.90;13.30;;;;;;;8.08;100.00;97813.83;108092;1266;59700;-75
2022/10/14 01:13:47;;;;;;;25.70;18.30;;;;;;;8.08;100.00;97807.39;107936;1265;59767;-75
2022/10/14 01:16:57;;;;;;;22.40;16.60;;;;;;;8.08;100.00;97808.09;108027;1266;70236;-75
2022/10/14 01:19:51;;;;;;;26.00;17.40;;;;;;;8.09;100.00;97802.70;107896;1267;68412;-75
2022/10/14 01:22:33;;;;;;;20.10;12.90;;;;;;;8.08;100.00;97800.80;107829;1267;69229;-76
2022/10/14 01:25:25;;;;;;;20.30;13.00;;;;;;;8.09;100.00;97799.39;107898;1265;59720;-75
2022/10/14 01:28:13;;;;;;;;;;;;;;;8.10;100.00;97800.02;108189;1262;59726;-76
2022/10/14 01:30:54;;;;;;;17.50;11.90;;;;;;;8.10;100.00;97802.61;108005;1266;70567;-76
2022/10/14 01:33:27;;;;;;;20.50;12.80;;;;;;;8.12;100.00;97800.75;108040;1266;68887;-75
2022/10/14 01:36:19;;;;;;;15.20;10.40;;;;;;;8.13;100.00;97801.41;108090;1263;69179;-76
2022/10/14 01:39:00;;;;;;;22.00;14.70;;;;;;;8.13;100.00;97804.37;108029;1256;59694;-75
2022/10/14 01:41:34;;;;;;;17.30;11.20;;;;;;;8.13;100.00;97802.08;107843;1269;59714;-75
2022/10/14 01:44:09;;;;;;;15.80;10.60;;;;;;;8.13;100.00;97802.11;108122;1267;71450;-75
2022/10/14 01:46:46;;;;;;;18.60;13.50;;;;;;;8.14;100.00;97799.64;108052;1267;69153;-75
2022/10/14 01:49:35;;;;;;;20.50;12.70;;;;;;;8.13;100.00;97797.94;107955;1267;68379;-76
2022/10/14 01:52:09;;;;;;;;;;;;;;;8.13;100.00;97798.80;107866;1267;59750;-76
2022/10/14 01:54:44;;;;;;;20.50;13.30;;;;;;;8.13;100.00;97797.92;107984;1267;60100;-75
2022/10/14 01:57:22;;;;;;;17.60;12.80;;;;;;;8.15;100.00;97793.86;108181;1264;71429;-75
2022/10/14 01:59:54;;;;;;;18.60;13.80;;;;;;;8.16;100.00;97791.52;107969;1267;69190;-76
2022/10/14 02:02:24;;;;;;;19.70;14.30;;;;;;;8.17;100.00;97788.84;107975;1266;69591;-75
2022/10/14 02:04:54;;;;;;;17.50;12.70;;;;;;;8.21;100.00;97787.23;107922;1266;59754;-76
2022/10/14 02:07:33;;;;;;;17.40;12.70;;;;;;;8.22;100.00;97786.34;108057;1267;59762;-76
2022/10/14 02:10:28;;;;;;;18.50;13.30;;;;;;;8.23;100.00;97787.84;108131;1266;70615;-76
2022/10/14 02:13:08;;;;;;;18.70;14.10;;;;;;;8.23;100.00;97788.87;107955;1267;68172;-75
2022/10/14 02:15:58;;;;;;;20.70;14.00;;;;;;;8.22;100.00;97789.63;107875;1262;69056;-76
2022/10/14 02:18:42;;;;;;;17.30;12.90;;;;;;;8.21;100.00;97789.33;107833;1261;59683;-76
2022/10/14 02:21:40;;;;;;;16.60;13.60;;;;;;;8.21;100.00;97790.02;107947;1258;59668;-75
2022/10/14 02:24:18;;;;;;;14.40;10.30;;;;;;;8.22;100.00;97789.60;108150;1265;70668;-76
2022/10/14 02:26:51;;;;;;;15.10;12.20;;;;;;;8.22;100.00;97790.98;108013;1263;69186;-76
2022/10/14 02:29:22;;;;;;;20.90;14.00;;;;;;;8.21;100.00;97791.60;108155;1266;70223;-75
2022/10/14 02:31:58;;;;;;;20.50;12.50;;;;;;;8.18;100.00;97792.27;108200;1267;59657;-76
2022/10/14 02:34:30;;;;;;;23.90;15.00;;;;;;;8.16;100.00;97789.80;107984;1263;59619;-76
2022/10/14 02:37:02;;;;;;;62.40;18.40;;;;;;;8.12;100.00;97790.88;108137;1267;71419;-75
2022/10/14 02:39:39;;;;;;;61.70;15.60;;;;;;;8.08;100.00;97788.82;107871;1267;69228;-75
2022/10/14 02:42:09;;;;;;;31.50;14.10;;;;;;;8.05;100.00;97788.64;107859;1266;69368;-75
2022/10/14 02:44:55;;;;;;;26.60;14.10;;;;;;;8.03;100.00;97789.28;108040;1271;59751;-76
2022/10/14 02:47:26;;;;;;;18.50;12.20;;;;;;;8.02;100.00;97789.37;107911;1267;59738;-76
2022/10/14 02:49:57;;;;;;;26.30;16.20;;;;;;;8.00;100.00;97787.07;108022;1266;69609;-76
2022/10/14 02:52:26;;;;;;;19.30;13.30;;;;;;;7.97;100.00;97786.36;108037;1262;69129;-76
2022/10/14 02:54:56;;;;;;;26.30;14.50;;;;;;;7.95;100.00;97787.02;107965;1267;68483;-76
2022/10/14 02:57:27;;;;;;;27.00;13.10;;;;;;;7.90;100.00;97785.50;108016;1267;59773;-75
2022/10/14 02:59:57;;;;;;;37.80;15.30;;;;;;;7.86;100.00;97786.44;108039;1266;59675;-75
2022/10/14 03:02:26;;;;;;;29.60;14.40;;;;;;;7.81;100.00;97785.16;107752;1266;71247;-75
2022/10/14 03:04:57;;;;;;;19.10;12.70;;;;;;;7.77;100.00;97785.38;107961;1267;69159;-75
2022/10/14 03:07:26;;;;;;;16.40;11.40;;;;;;;7.76;100.00;97786.84;107986;1262;68393;-75
2022/10/14 03:09:57;;;;;;;24.40;14.30;;;;;;;7.75;100.00;97786.23;107811;1265;59746;-75
2022/10/14 03:12:26;;;;;;;16.80;11.20;;;;;;;7.73;100.00;97785.44;108059;1266;59706;-74
2022/10/14 03:14:56;;;;;;;18.90;13.20;;;;;;;7.72;100.00;97785.34;107816;1266;70624;-76
2022/10/14 03:17:26;;;;;;;19.10;13.70;;;;;;;7.71;100.00;97782.23;107895;1267;68567;-75
2022/10/14 03:19:58;;;;;;;25.80;15.00;;;;;;;7.71;100.00;97781.02;108079;1263;69131;-74
2022/10/14 03:22:27;;;;;;;27.80;15.40;;;;;;;7.70;100.00;97778.13;107793;1267;59745;-75
2022/10/14 03:24:58;;;;;;;21.50;13.90;;;;;;;7.70;100.00;97777.09;107717;1266;59765;-75
2022/10/14 03:27:52;;;;;;;25.80;13.90;;;;;;;7.70;100.00;97779.19;107900;1267;71442;-74
2022/10/14 03:30:25;;;;;;;24.70;15.70;;;;;;;7.70;100.00;97780.94;108137;1263;69843;-75
2022/10/14 03:32:59;;;;;;;20.50;12.40;;;;;;;7.71;100.00;97775.48;108086;1266;68468;-75
2022/10/14 03:35:48;;;;;;;26.20;12.30;;;;;;;7.71;100.00;97776.67;107676;1266;59819;-75
2022/10/14 03:38:20;;;;;;;19.90;14.50;;;;;;;7.72;100.00;97776.84;107879;1266;59703;-75
2022/10/14 03:40:49;;;;;;;21.00;13.00;;;;;;;7.71;100.00;97774.80;107804;1262;70882;-74
2022/10/14 03:43:19;;;;;;;31.50;13.80;;;;;;;7.71;100.00;97773.23;108730;1263;69692;-73
2022/10/14 03:45:53;;;;;;;21.90;13.90;;;;;;;7.71;100.00;97773.27;108441;1262;69271;-75
2022/10/14 03:48:24;;;;;;;24.80;12.50;;;;;;;7.69;100.00;97772.81;107889;1263;59722;-76
2022/10/14 03:50:56;;;;;;;25.40;14.00;;;;;;;7.69;100.00;97769.92;108126;1266;59699;-75
2022/10/14 03:53:26;;;;;;;30.30;14.50;;;;;;;7.68;100.00;97769.77;108467;1259;71187;-74
2022/10/14 03:55:55;;;;;;;20.70;12.10;;;;;;;7.65;100.00;97768.12;108044;1266;69064;-74
2022/10/14 03:58:25;;;;;;;25.40;14.50;;;;;;;7.65;100.00;97767.64;108180;1257;69066;-74
2022/10/14 04:00:58;;;;;;;17.90;12.70;;;;;;;7.64;100.00;97764.77;108129;1266;59790;-72
2022/10/14 04:03:33;;;;;;;20.20;13.50;;;;;;;7.62;100.00;97759.66;108098;1260;59796;-74
2022/10/14 04:06:03;;;;;;;15.90;10.80;;;;;;;7.61;100.00;97759.01;107868;1266;70670;-75
2022/10/14 04:08:32;;;;;;;15.50;11.20;;;;;;;7.59;100.00;97761.04;107879;1263;69702;-75
2022/10/14 04:11:16;;;;;;;16.70;9.60;;;;;;;7.56;100.00;97764.84;108010;1266;69252;-73
2022/10/14 04:13:45;;;;;;;16.70;10.10;;;;;;;7.54;100.00;97761.17;107898;1267;59721;-75
2022/10/14 04:16:15;;;;;;;23.90;14.00;;;;;;;7.51;100.00;97762.15;108041;1265;59649;-74
2022/10/14 04:19:07;;;;;;;31.40;15.90;;;;;;;7.50;100.00;97763.30;107990;1266;70544;-76
2022/10/14 04:21:35;;;;;;;34.10;15.20;;;;;;;7.49;100.00;97764.91;107946;1266;68911;-75
2022/10/14 04:24:06;;;;;;;29.60;13.70;;;;;;;7.46;100.00;97761.91;108132;1260;69307;-75
2022/10/14 04:26:42;;;;;;;23.00;12.80;;;;;;;7.45;100.00;97762.53;107985;1256;59694;-75
2022/10/14 04:29:16;;;;;;;16.60;10.40;;;;;;;7.43;100.00;97764.39;108160;1266;59646;-75
2022/10/14 04:31:55;;;;;;;13.50;9.60;;;;;;;7.42;100.00;97766.85;107823;1266;71383;-75
2022/10/14 04:34:25;;;;;;;12.80;10.50;;;;;;;7.41;100.00;97768.29;108039;1266;69134;-75
2022/10/14 04:36:53;;;;;;;17.00;12.70;;;;;;;7.41;100.00;97767.27;107896;1263;69951;-75
2022/10/14 04:39:40;;;;;;;18.10;12.40;;;;;;;7.40;100.00;97767.62;108394;1257;59698;-74
2022/10/14 04:42:09;;;;;;;14.00;10.30;;;;;;;7.42;100.00;97767.75;108052;1255;59701;-75
2022/10/14 04:44:38;;;;;;;12.00;8.70;;;;;;;7.42;100.00;97765.13;107975;1267;72025;-74
2022/10/14 04:47:07;;;;;;;14.70;10.90;;;;;;;7.41;100.00;97764.66;108230;1265;69674;-75
2022/10/14 04:49:37;;;;;;;14.00;9.40;;;;;;;7.42;100.00;97764.92;107999;1266;69597;-74
2022/10/14 04:52:13;;;;;;;15.10;10.70;;;;;;;7.43;100.00;97761.73;108214;1266;59719;-75
2022/10/14 04:55:02;;;;;;;16.70;10.30;;;;;;;7.45;100.00;97762.19;108216;1262;59644;-75
2022/10/14 04:57:38;;;;;;;15.70;10.70;;;;;;;7.47;100.00;97761.72;108120;1266;72465;-75
2022/10/14 05:00:08;;;;;;;22.30;11.50;;;;;;;7.50;100.00;97763.29;107804;1266;69210;-75
2022/10/14 05:02:47;;;;;;;16.30;9.50;;;;;;;7.51;100.00;97759.23;108030;1265;68816;-75
2022/10/14 05:05:16;;;;;;;15.00;10.90;;;;;;;7.54;100.00;97758.54;108135;1262;59747;-75
2022/10/14 05:07:48;;;;;;;19.20;12.30;;;;;;;7.59;100.00;97759.85;108164;1266;59645;-75
2022/10/14 05:10:24;;;;;;;15.20;10.30;;;;;;;7.62;100.00;97757.05;108067;1266;69416;-75
2022/10/14 05:12:53;;;;;;;20.70;13.10;;;;;;;7.67;100.00;97761.11;107985;1264;67854;-75
2022/10/14 05:15:24;;;;;;;17.10;10.80;;;;;;;7.71;100.00;97754.48;108035;1262;68596;-74
2022/10/14 05:18:01;;;;;;;21.40;14.60;;;;;;;7.75;100.00;97758.95;108087;1265;59707;-75
2022/10/14 05:20:49;;;;;;;20.50;13.30;;;;;;;7.79;100.00;97759.25;107864;1266;59786;-75
2022/10/14 05:23:18;;;;;;;19.80;13.90;;;;;;;7.83;100.00;97759.88;107801;1266;70592;-74
2022/10/14 05:25:50;;;;;;;16.00;9.60;;;;;;;7.88;100.00;97762.19;108026;1265;68809;-74
2022/10/14 05:28:19;;;;;;;22.20;13.90;;;;;;;7.91;100.00;97762.55;108134;1262;69269;-75
2022/10/14 05:30:49;;;;;;;22.10;14.70;;;;;;;7.93;100.00;97762.09;107914;1263;59714;-75
2022/10/14 05:33:18;;;;;;;15.20;11.80;;;;;;;7.96;100.00;97760.17;107951;1267;60049;-75
2022/10/14 05:35:48;;;;;;;23.40;17.20;;;;;;;7.98;100.00;97761.27;107604;1263;669647;-74
2022/10/14 05:38:33;;;;;;;23.90;17.10;;;;;;;8.03;100.00;97761.52;108095;1263;69243;-75
2022/10/14 05:41:03;;;;;;;31.10;20.40;;;;;;;8.07;100.00;97762.86;108220;1263;68581;-75
2022/10/14 05:43:32;;;;;;;29.70;19.90;;;;;;;8.12;100.00;97762.39;107936;1266;59780;-75
2022/10/14 05:46:02;;;;;;;24.40;16.90;;;;;;;8.17;100.00;97761.44;108063;1266;59741;-75
2022/10/14 05:48:35;;;;;;;31.30;21.80;;;;;;;8.22;100.00;97767.40;107983;1266;71988;-75
2022/10/14 05:51:04;;;;;;;30.60;21.40;;;;;;;8.26;100.00;97764.54;108082;1262;68413;-75
2022/10/14 05:53:38;;;;;;;36.60;26.30;;;;;;;8.31;100.00;97769.29;108023;1266;69342;-75
2022/10/14 05:56:10;;;;;;;23.00;18.50;;;;;;;8.35;100.00;97765.94;108152;1260;59721;-76
2022/10/14 05:58:40;;;;;;;23.30;19.70;;;;;;;8.40;100.00;97769.48;107971;1262;59709;-75
2022/10/14 06:01:10;;;;;;;23.80;19.00;;;;;;;8.44;100.00;97765.27;108107;1260;70528;-76
2022/10/14 06:03:42;;;;;;;20.70;17.70;;;;;;;8.50;100.00;97758.67;107843;1262;69843;-76
2022/10/14 06:06:13;;;;;;;19.80;16.20;;;;;;;8.56;100.00;97760.08;108126;1263;69873;-77
2022/10/14 06:08:42;;;;;;;17.80;13.80;;;;;;;8.61;100.00;97760.09;107980;1258;59651;-76
2022/10/14 06:11:11;;;;;;;21.40;14.20;;;;;;;8.68;100.00;97761.56;108242;1265;59764;-76
2022/10/14 06:13:40;;;;;;;18.20;13.40;;;;;;;8.78;100.00;97763.81;108136;1267;70335;-75
2022/10/14 06:16:10;;;;;;;16.70;13.70;;;;;;;8.89;100.00;97754.80;108172;1262;69709;-75
2022/10/14 06:18:39;;;;;;;19.80;15.10;;;;;;;8.99;100.00;97761.29;107949;1263;69899;-75
2022/10/14 06:21:10;;;;;;;19.60;15.70;;;;;;;9.12;100.00;97764.48;108034;1262;59776;-75
2022/10/14 06:23:39;;;;;;;18.10;13.60;;;;;;;9.30;100.00;97763.58;108058;1263;59670;-77
2022/10/14 06:26:08;;;;;;;23.50;18.20;;;;;;;9.57;100.00;97762.09;108093;1266;71235;-76
2022/10/14 06:28:37;;;;;;;24.70;20.70;;;;;;;9.88;100.00;97766.20;108106;1264;69670;-76
2022/10/14 06:31:06;;;;;;;26.10;18.90;;;;;;;10.21;100.00;97767.19;108258;1264;69369;-79
2022/10/14 06:33:34;;;;;;;21.00;15.70;;;;;;;10.55;100.00;97766.50;108119;1264;59700;-76
2022/10/14 06:36:05;;;;;;;17.40;14.80;;;;;;;10.87;100.00;97767.66;108020;1265;59754;-77
2022/10/14 06:38:36;;;;;;;15.50;12.50;;;;;;;11.12;100.00;97766.98;108201;1266;71406;-75
2022/10/14 06:41:05;;;;;;;13.10;10.80;;;;;;;11.31;97.93;97768.41;108191;1261;69292;-76
2022/10/14 06:43:34;;;;;;;15.20;12.20;;;;;;;11.51;98.21;97771.94;107977;1256;69875;-76
2022/10/14 06:46:04;;;;;;;12.00;10.60;;;;;;;11.63;96.80;97774.39;108071;1262;59711;-78
2022/10/14 06:48:34;;;;;;;11.60;10.40;;;;;;;11.73;96.13;97771.41;107876;1266;59749;-77
2022/10/14 06:51:04;;;;;;;19.70;17.70;;;;;;;11.81;96.48;97775.06;107977;1260;72033;-77
2022/10/14 06:53:36;;;;;;;13.20;10.90;;;;;;;11.88;96.60;97773.34;108189;1260;68566;-76
2022/10/14 06:56:06;;;;;;;11.50;9.70;;;;;;;11.93;96.00;97770.87;108189;1262;69233;-76
2022/10/14 06:58:35;;;;;;;14.40;10.40;;;;;;;11.99;97.32;97773.70;108002;1267;59729;-77
2022/10/14 07:01:05;;;;;;;11.20;9.30;;;;;;;12.01;96.46;97773.26;108110;1266;59680;-77
2022/10/14 07:03:37;;;;;;;10.50;9.00;;;;;;;12.08;96.84;97776.38;107955;1267;70607;-76
2022/10/14 07:06:07;;;;;;;17.80;13.90;;;;;;;12.11;96.92;97775.50;107916;1262;68360;-77
2022/10/14 07:08:36;;;;;;;;;;;;;;;12.11;96.31;97779.52;108051;1262;69308;-75
2022/10/14 07:11:07;;;;;;;14.70;13.10;;;;;;;12.09;95.06;97782.96;108198;1266;59769;-76
2022/10/14 07:13:36;;;;;;;19.30;15.10;;;;;;;12.15;96.41;97784.31;108111;1263;59762;-77
2022/10/14 07:16:05;;;;;;;16.90;15.00;;;;;;;12.12;95.64;97782.38;108168;1266;71335;-73
2022/10/14 07:18:34;;;;;;;18.80;16.10;;;;;;;12.16;95.39;97783.17;108005;1265;69127;-76
2022/10/14 07:21:04;;;;;;;14.60;12.20;;;;;;;12.23;96.37;97783.65;108169;1264;69232;-76
2022/10/14 07:23:32;;;;;;;;;;;;;;;12.27;96.69;97786.36;108214;1263;59688;-76
2022/10/14 07:26:01;;;;;;;19.00;14.60;;;;;;;12.26;97.12;97782.78;108005;1261;59784;-76
2022/10/14 07:28:32;;;;;;;14.20;12.60;;;;;;;12.26;97.19;97780.66;108139;1264;70394;-76
2022/10/14 07:31:05;;;;;;;12.80;11.10;;;;;;;12.35;97.14;97783.47;107847;1266;68250;-75
2022/10/14 07:33:36;;;;;;;14.40;11.60;;;;;;;12.47;97.26;97775.61;108236;1261;69242;-76
2022/10/14 07:36:12;;;;;;;13.70;11.90;;;;;;;12.57;96.46;97775.41;107730;1265;60186;-76
2022/10/14 07:38:47;;;;;;;14.40;12.30;;;;;;;12.66;95.12;97772.29;107929;1259;59760;-77
2022/10/14 07:41:19;;;;;;;16.60;13.60;;;;;;;12.73;93.88;97778.16;107986;1263;70668;-75
2022/10/14 07:43:51;;;;;;;14.50;12.90;;;;;;;12.84;94.04;97778.95;108116;1260;68247;-75
2022/10/14 07:46:33;;;;;;;14.90;12.00;;;;;;;12.93;94.28;97778.44;108107;1262;69279;-76
2022/10/14 07:49:09;;;;;;;15.70;13.80;;;;;;;13.11;94.36;97778.64;108103;1266;59705;-75
2022/10/14 07:51:39;;;;;;;15.90;12.20;;;;;;;13.23;92.01;97778.38;108110;1266;59691;-75
2022/10/14 07:54:12;;;;;;;17.00;13.30;;;;;;;13.31;89.33;97780.41;108123;1265;70603;-76
2022/10/14 07:56:43;;;;;;;15.40;12.60;;;;;;;13.56;90.12;97780.77;108130;1260;68401;-75
2022/10/14 07:59:19;;;;;;;17.90;12.80;;;;;;;13.90;89.10;97781.02;108226;1265;69142;-75
2022/10/14 08:01:50;;;;;;;12.50;10.00;;;;;;;14.01;85.18;97779.27;107814;1263;59758;-76
2022/10/14 08:04:19;;;;;;;11.40;9.50;;;;;;;14.09;82.81;97781.35;107992;1266;59732;-76
2022/10/14 08:06:48;;;;;;;13.30;11.80;;;;;;;14.21;82.97;97777.09;107935;1262;71420;-75
2022/10/14 08:09:18;;;;;;;13.70;11.00;;;;;;;14.34;82.51;97780.09;108087;1266;69172;-76
2022/10/14 08:11:47;;;;;;;11.00;8.90;;;;;;;14.46;82.02;97779.73;108043;1265;68536;-76
2022/10/14 08:14:16;;;;;;;12.40;9.50;;;;;;;14.72;82.27;97776.95;108101;1263;59698;-76
2022/10/14 08:16:44;;;;;;;11.60;9.40;;;;;;;14.94;80.53;97776.64;107857;1261;59652;-77
2022/10/14 08:19:13;;;;;;;13.90;8.60;;;;;;;15.19;80.71;97772.92;108004;1263;70567;-77
2022/10/14 08:21:42;;;;;;;9.50;8.20;;;;;;;15.46;77.80;97773.24;108050;1263;68340;-76
2022/10/14 08:24:11;;;;;;;11.70;9.90;;;;;;;15.93;79.31;97777.07;108104;1260;69244;-77
2022/10/14 08:26:52;;;;;;;10.00;8.80;;;;;;;16.49;73.11;97776.27;108132;1266;59691;-76
2022/10/14 08:29:23;;;;;;;10.80;9.60;;;;;;;16.92;71.31;97771.45;108085;1260;59649;-77
2022/10/14 08:31:54;;;;;;;7.90;6.80;;;;;;;17.64;70.33;97775.36;108125;1265;71382;-77
2022/10/14 08:34:23;;;;;;;9.70;8.60;;;;;;;18.61;71.39;97776.80;108098;1265;69224;-76
2022/10/14 08:36:51;;;;;;;9.20;8.10;;;;;;;18.81;62.60;97777.11;108087;1262;69253;-76
2022/10/14 08:39:20;;;;;;;7.90;7.10;;;;;;;19.25;64.77;97778.46;108114;1261;59709;-76
2022/10/14 08:42:15;;;;;;;8.40;6.50;;;;;;;19.49;61.11;97776.53;108158;1262;59725;-76
2022/10/14 08:44:58;;;;;;;7.80;6.90;;;;;;;19.78;61.15;97782.91;108124;1263;71314;-76
2022/10/14 08:47:35;;;;;;;9.40;7.20;;;;;;;19.80;61.92;97782.18;108149;1265;69914;-76
2022/10/14 08:50:18;;;;;;;9.00;6.70;;;;;;;19.43;56.79;97775.17;108065;1262;69916;-76
2022/10/14 08:52:53;;;;;;;8.50;6.40;;;;;;;19.30;57.71;97775.71;108075;1264;59797;-77
2022/10/14 08:55:27;;;;;;;8.80;7.10;;;;;;;19.19;58.61;97776.59;108059;1262;59704;-77
2022/10/14 08:58:11;;;;;;;10.20;7.30;;;;;;;18.98;59.57;97775.61;108309;1263;71860;-77
2022/10/14 09:00:41;;;;;;;8.50;7.00;;;;;;;19.35;60.65;97772.85;108139;1265;68650;-76
2022/10/14 09:03:31;;;;;;;7.80;6.70;;;;;;;19.05;57.52;97770.92;108102;1262;69393;-75
2022/10/14 09:06:09;;;;;;;10.20;7.70;;;;;;;19.30;58.89;97769.31;108130;1260;59771;-77
2022/10/14 09:08:42;;;;;;;9.90;8.50;;;;;;;19.23;58.30;97772.72;108136;1262;59846;-76
2022/10/14 09:11:15;;;;;;;12.10;8.80;;;;;;;18.97;57.87;97777.48;108037;1263;70891;-76
2022/10/14 09:13:59;;;;;;;8.80;7.30;;;;;;;18.37;58.23;97779.83;107966;1263;68416;-77
2022/10/14 09:16:35;;;;;;;8.80;7.60;;;;;;;18.33;58.81;97780.82;108092;1260;69274;-76
2022/10/14 09:19:10;;;;;;;11.70;8.50;;;;;;;18.07;59.46;97780.50;108031;1265;59757;-77
2022/10/14 09:21:54;;;;;;;8.60;7.50;;;;;;;18.26;60.01;97778.11;108102;1266;59751;-76
2022/10/14 09:24:27;;;;;;;9.60;8.50;;;;;;;18.63;59.42;97777.85;108027;1262;71269;-76
2022/10/14 09:27:01;;;;;;;10.90;7.70;;;;;;;18.82;58.15;97774.20;108168;1261;69995;-76
2022/10/14 09:29:53;;;;;;;9.80;8.20;;;;;;;19.06;58.18;97775.52;108021;1263;69301;-76
2022/10/14 09:32:44;;;;;;;9.00;7.70;;;;;;;18.95;54.56;97774.93;107960;1266;59746;-75
2022/10/14 09:35:48;;;;;;;10.20;8.00;;;;;;;18.71;55.01;97772.42;108122;1264;59680;-76
2022/10/14 09:38:18;;;;;;;10.50;8.60;;;;;;;19.26;55.88;97773.59;107747;1265;71441;-74
2022/10/14 09:40:50;;;;;;;13.90;8.70;;;;;;;19.29;54.10;97772.12;107946;1266;69822;-76
2022/10/14 09:43:22;;;;;;;8.80;6.70;;;;;;;19.02;54.82;97773.23;107920;1266;68562;-76
2022/10/14 09:46:07;;;;;;;10.10;7.10;;;;;;;19.14;54.17;97773.96;107904;1252;59739;-76
2022/10/14 09:48:48;;;;;;;9.80;7.40;;;;;;;19.27;54.54;97772.82;107850;1263;59700;-76
2022/10/14 09:51:28;;;;;;;10.00;6.90;;;;;;;19.51;53.83;97770.81;107755;1264;72070;-77
2022/10/14 09:54:00;;;;;;;9.30;8.40;;;;;;;19.80;53.25;97772.67;108009;1263;69475;-80
2022/10/14 09:56:35;;;;;;;10.50;7.10;;;;;;;19.77;52.68;97770.06;108188;1266;69388;-75
2022/10/14 09:59:21;;;;;;;9.70;7.90;;;;;;;19.84;52.89;97769.23;107888;1257;59751;-74
2022/10/14 10:01:56;;;;;;;7.70;6.60;;;;;;;20.39;53.88;97769.75;108013;1262;59623;-74
2022/10/14 10:04:30;;;;;;;9.20;7.00;;;;;;;21.24;51.94;97762.44;108010;1260;71413;-75
2022/10/14 10:07:06;;;;;;;9.20;6.90;;;;;;;21.82;49.39;97763.35;107946;1263;69688;-76
2022/10/14 10:09:34;;;;;;;8.20;5.90;;;;;;;22.67;47.25;97759.13;107794;1263;69229;-76
2022/10/14 10:12:23;;;;;;;7.70;6.80;;;;;;;23.23;46.29;97757.96;107885;1266;59769;-76
2022/10/14 10:15:04;;;;;;;7.80;6.80;;;;;;;23.90;44.28;97755.36;108135;1265;59648;-76
2022/10/14 10:17:36;;;;;;;8.10;6.60;;;;;;;24.67;43.24;97751.80;108022;1266;70846;-76
2022/10/14 10:20:30;;;;;;;8.10;6.00;;;;;;;25.41;41.60;97747.00;108045;1263;69167;-76
2022/10/14 10:23:25;;;;;;;7.20;6.50;;;;;;;25.49;40.86;97740.04;108269;1262;67409;-75
2022/10/14 10:25:54;;;;;;;7.20;5.30;;;;;;;25.85;39.06;97737.70;107963;1260;59726;-76
2022/10/14 10:28:30;;;;;;;;;;;;;;;25.33;38.96;97730.02;108059;1262;59680;-75
2022/10/14 10:31:31;;;;;;;6.40;5.30;;;;;;;26.37;39.80;97732.13;108014;1266;71367;-75
2022/10/14 10:34:27;;;;;;;6.80;6.10;;;;;;;27.06;38.77;97727.76;108112;1263;69904;-74
2022/10/14 10:37:04;;;;;;;6.90;6.10;;;;;;;26.37;38.00;97730.73;107963;1262;69284;-74
2022/10/14 10:40:20;;;;;;;6.70;6.00;;;;;;;25.47;39.04;97722.13;108111;1262;59710;-74
2022/10/14 10:43:06;;;;;;;7.10;6.10;;;;;;;23.97;40.94;97727.28;108093;1266;59691;-74
2022/10/14 10:46:16;;;;;;;6.60;5.40;;;;;;;23.61;41.52;97722.30;108002;1264;71198;-74
2022/10/14 10:49:02;;;;;;;6.00;5.30;;;;;;;23.13;43.22;97717.52;107624;1266;69686;-74
2022/10/14 10:51:39;;;;;;;8.50;5.80;;;;;;;22.83;43.29;97719.20;108065;1266;68559;-73
2022/10/14 10:54:43;;;;;;;7.20;6.20;;;;;;;22.60;43.20;97713.58;108182;1262;59727;-73
2022/10/14 10:57:44;;;;;;;8.50;6.50;;;;;;;22.08;44.73;97711.44;107431;1272;59696;-74
2022/10/14 11:00:22;;;;;;;6.70;5.70;;;;;;;21.88;46.28;97708.77;108089;1264;72077;-74
2022/10/14 11:03:33;;;;;;;6.90;6.20;;;;;;;21.68;46.02;97705.16;108056;1266;69182;-74
2022/10/14 11:12:47;;;;;;;5.90;5.10;;;;;;;21.12;46.39;97698.20;108044;1263;59752;-74
2022/10/14 11:15:29;;;;;;;7.20;6.50;;;;;;;20.71;47.31;97697.41;108173;1266;71404;-74
2022/10/14 11:18:02;;;;;;;7.40;5.70;;;;;;;20.60;48.09;97696.27;107984;1266;69432;-73
2022/10/14 11:20:53;;;;;;;7.80;6.30;;;;;;;20.45;47.18;97695.06;107858;1266;70496;-75
2022/10/14 11:23:46;;;;;;;7.10;5.10;;;;;;;20.35;47.33;97691.33;108103;1262;59676;-74
2022/10/14 11:26:24;;;;;;;7.70;5.80;;;;;;;20.15;48.34;97691.79;108007;1262;59694;-76
2022/10/14 11:28:58;;;;;;;8.10;6.50;;;;;;;20.18;49.12;97691.16;108118;1265;71092;-74
2022/10/14 11:32:16;;;;;;;6.60;5.80;;;;;;;20.06;49.40;97690.08;107976;1265;69268;-79
2022/10/14 11:34:58;;;;;;;10.30;6.90;;;;;;;19.89;50.14;97687.64;107786;1262;69409;-75
2022/10/14 11:37:40;;;;;;;8.90;7.10;;;;;;;19.72;50.52;97684.48;107703;1266;59653;-75
2022/10/14 11:40:44;;;;;;;8.00;6.80;;;;;;;19.10;52.08;97679.44;107815;1262;59754;-74
2022/10/14 11:43:18;;;;;;;9.90;6.80;;;;;;;18.50;53.30;97679.13;107899;1263;71594;-74
2022/10/14 11:46:00;;;;;;;8.90;7.70;;;;;;;18.26;53.87;97674.58;107962;1262;68989;-75
2022/10/14 11:48:59;;;;;;;9.70;7.00;;;;;;;18.11;54.14;97671.98;107776;1267;69335;-75
2022/10/14 11:51:43;;;;;;;8.70;6.70;;;;;;;18.07;55.47;97672.96;107900;1262;59722;-74
2022/10/14 11:54:35;;;;;;;10.60;7.50;;;;;;;18.03;55.48;97666.72;107713;1267;59705;-73
2022/10/14 11:57:14;;;;;;;8.30;7.00;;;;;;;18.14;54.94;97664.53;107670;1269;71479;-75
2022/10/14 12:03:23;;;;;;;8.60;6.80;;;;;;;18.54;53.34;97653.11;107666;1263;69016;-74
2022/10/14 12:06:03;;;;;;;7.70;5.70;;;;;;;18.65;53.71;97654.98;107899;1261;59692;-73